map of TIN home
TIN - Airport
Location
City:  Tindouf, Tindouf, Algeria
Name:Tindouf Airport
ICAO:DAOF
IATA:TIN

Details
Type:Airport (Aerodrome, Airfield)
Use:Public/Civil, International (customs port of entry)
Latitude:2742'00"N (27.700000)
Longitude:810'00"W (-8.166666)
Elevation:1453 ft (443 m)
Variation:2.12W (WMM2015 magnetic declination)
0.11 annual change
Runways:1
Longest:9843 × 148 ft (3000 × 45 m)

Time
Time Zone:UTC+1
Local Time:

Weather
METAR:DAOF 170200Z 03005KT CAVOK 13/M04 Q1026

Related Locations
Nearby:
Farthest:NLK: 12189 mi / 19616 km
Norfolk Island, NF

Find:

   beyond  
but within

Other Information
Maps:
NOTAMs:
Links:
Sources:

  
  • flag of Algeria
  

Sectional Chart

Flight Planning
at skyvector.com

Satellite Image

Google Maps Satellite view

 

Copyright © 2004-2018 Karl L. Swartz. All rights reserved.
The Great Circle Mapper name and logo are trademarks of the Great Circle Mapper.
All other trademarks mentioned herein belong to their respective owners.
Please see credits for attibutions and further copyright information.

  Follow gcmap on Facebook Follow gcmap on Twitter Follow gcmap on Google+ GCmap on LinkedIn

hCard Microformat

Geo Microformat